createdAt,value
2018-12-31T00:00:10.718Z,49.91
2018-12-31T00:02:40.131Z,50.51
2018-12-31T00:05:09.049Z,49.86
2018-12-31T00:07:35.011Z,49.86
2018-12-31T00:10:01.348Z,50.70
2018-12-31T00:12:27.293Z,50.54
2018-12-31T00:14:53.201Z,50.24
2018-12-31T00:17:19.087Z,50.33
2018-12-31T00:19:44.996Z,49.84
2018-12-31T00:22:10.889Z,50.22
2018-12-31T00:24:36.781Z,49.87
2018-12-31T00:27:03.149Z,49.83
2018-12-31T00:29:31.836Z,50.17
2018-12-31T00:31:57.786Z,49.66
2018-12-31T00:34:26.701Z,49.74
2018-12-31T00:36:52.585Z,49.86
2018-12-31T00:39:18.528Z,50.00
2018-12-31T00:41:49.328Z,49.73
2018-12-31T00:44:18.062Z,49.68
2018-12-31T00:46:49.591Z,49.74
2018-12-31T00:49:18.688Z,49.50
2018-12-31T00:51:47.838Z,49.12
2018-12-31T00:54:13.727Z,49.33
2018-12-31T00:56:39.739Z,49.23
2018-12-31T00:59:08.734Z,49.75
2018-12-31T01:01:37.629Z,48.90
2018-12-31T01:04:06.594Z,49.08
2018-12-31T01:06:35.532Z,48.89
2018-12-31T01:09:01.458Z,48.79
2018-12-31T01:11:30.410Z,48.86
2018-12-31T01:13:56.308Z,49.14
2018-12-31T01:16:25.022Z,49.29
2018-12-31T01:18:50.916Z,48.89
2018-12-31T01:21:18.855Z,48.94
2018-12-31T01:23:47.943Z,49.12
2018-12-31T01:26:19.312Z,48.76
2018-12-31T01:28:48.086Z,48.95
2018-12-31T01:31:15.022Z,49.14
2018-12-31T01:33:43.917Z,48.95
2018-12-31T01:36:12.902Z,48.94
2018-12-31T01:38:41.916Z,48.81
2018-12-31T01:41:10.874Z,48.83
2018-12-31T01:43:36.859Z,48.73
2018-12-31T01:46:05.793Z,49.04
2018-12-31T01:48:35.426Z,49.34
2018-12-31T01:51:01.316Z,48.74
2018-12-31T01:53:30.125Z,49.27
2018-12-31T01:55:59.074Z,49.42
2018-12-31T01:58:28.207Z,48.94
2018-12-31T02:00:56.883Z,49.18
2018-12-31T02:03:25.964Z,49.34
2018-12-31T02:05:54.953Z,49.41
2018-12-31T02:08:20.963Z,49.57
2018-12-31T02:10:49.905Z,49.54
2018-12-31T02:13:18.986Z,49.71
2018-12-31T02:15:47.957Z,49.63
2018-12-31T02:18:13.822Z,49.14
2018-12-31T02:20:42.979Z,49.48
2018-12-31T02:23:08.869Z,49.49
2018-12-31T02:25:37.591Z,49.16
2018-12-31T02:28:04.402Z,49.33
2018-12-31T02:30:33.361Z,49.61
2018-12-31T02:33:02.315Z,49.79
2018-12-31T02:35:31.298Z,49.67
2018-12-31T02:38:00.575Z,49.89
2018-12-31T02:40:26.513Z,49.83
2018-12-31T02:42:55.185Z,49.86
2018-12-31T02:45:24.103Z,49.84
2018-12-31T02:47:53.010Z,49.43
2018-12-31T02:50:18.893Z,49.58
2018-12-31T02:52:44.783Z,49.53
2018-12-31T02:55:10.684Z,49.91
2018-12-31T02:57:36.944Z,49.35
2018-12-31T03:00:03.632Z,49.45
2018-12-31T03:02:29.538Z,49.22
2018-12-31T03:04:58.210Z,49.48
2018-12-31T03:07:24.404Z,49.43
2018-12-31T03:09:50.317Z,49.28
2018-12-31T03:12:16.200Z,49.19
2018-12-31T03:14:42.153Z,49.02
2018-12-31T03:17:11.072Z,49.26
2018-12-31T03:19:39.971Z,49.15
2018-12-31T03:22:08.890Z,49.30
2018-12-31T03:24:34.776Z,49.21
2018-12-31T03:27:03.755Z,49.65
2018-12-31T03:29:30.403Z,49.35
2018-12-31T03:31:59.373Z,49.32
2018-12-31T03:34:28.278Z,49.87
2018-12-31T03:36:57.220Z,49.69
2018-12-31T03:39:26.330Z,49.58
2018-12-31T03:41:55.272Z,49.60
2018-12-31T03:44:24.178Z,49.14
2018-12-31T03:46:50.122Z,49.48
2018-12-31T03:49:19.377Z,49.55
2018-12-31T03:51:48.100Z,49.49
2018-12-31T03:54:18.253Z,49.40
2018-12-31T03:56:44.113Z,49.55
2018-12-31T03:59:12.777Z,49.48
2018-12-31T04:01:41.679Z,49.76
2018-12-31T04:04:10.632Z,49.48
2018-12-31T04:06:39.536Z,49.29
2018-12-31T04:09:05.472Z,49.44
2018-12-31T04:11:34.453Z,49.66
2018-12-31T04:14:03.438Z,49.70
2018-12-31T04:16:32.451Z,49.65
2018-12-31T04:18:58.344Z,49.56
2018-12-31T04:21:27.290Z,49.89
2018-12-31T04:23:56.338Z,49.61
2018-12-31T04:26:22.244Z,49.55
2018-12-31T04:28:50.982Z,49.60
2018-12-31T04:31:20.084Z,49.88
2018-12-31T04:33:49.006Z,49.50
2018-12-31T04:36:18.322Z,49.86
2018-12-31T04:38:49.518Z,50.30
2018-12-31T04:41:18.452Z,50.12
2018-12-31T04:43:49.375Z,50.20
2018-12-31T04:46:18.387Z,50.02
2018-12-31T04:48:49.995Z,50.15
2018-12-31T04:51:18.693Z,49.95
2018-12-31T04:53:50.783Z,50.08
2018-12-31T04:56:20.370Z,49.89
2018-12-31T04:58:49.037Z,50.22
2018-12-31T05:01:14.938Z,49.71
2018-12-31T05:03:43.848Z,49.61
2018-12-31T05:06:09.791Z,49.36
2018-12-31T05:08:38.748Z,49.27
2018-12-31T05:11:04.646Z,49.62
2018-12-31T05:13:33.634Z,49.29
2018-12-31T05:16:02.552Z,49.84
2018-12-31T05:18:31.556Z,49.54
2018-12-31T05:21:00.451Z,49.97
2018-12-31T05:23:29.400Z,49.91
2018-12-31T05:25:58.420Z,50.05
2018-12-31T05:28:27.433Z,49.90
2018-12-31T05:30:53.337Z,49.75
2018-12-31T05:33:19.224Z,49.72
2018-12-31T05:35:45.122Z,50.65
2018-12-31T05:38:11.039Z,50.34
2018-12-31T05:40:36.934Z,50.10
2018-12-31T05:43:02.794Z,50.88
2018-12-31T05:45:28.816Z,50.50
2018-12-31T05:47:54.705Z,50.01
2018-12-31T05:50:20.647Z,50.22
2018-12-31T05:52:50.068Z,50.60
2018-12-31T05:55:16.014Z,49.99
2018-12-31T05:57:44.759Z,50.97
2018-12-31T06:00:13.456Z,50.07
2018-12-31T06:02:42.532Z,50.02
2018-12-31T06:05:08.436Z,49.97
2018-12-31T06:07:37.102Z,49.81
2018-12-31T06:10:03.044Z,50.11
2018-12-31T06:12:28.940Z,49.79
2018-12-31T06:14:54.842Z,50.15
2018-12-31T06:17:23.605Z,50.02
2018-12-31T06:19:49.509Z,49.67
2018-12-31T06:22:15.420Z,49.92
2018-12-31T06:24:41.313Z,49.81
2018-12-31T06:27:07.252Z,50.15
2018-12-31T06:29:33.156Z,50.23
2018-12-31T06:32:01.841Z,49.89
2018-12-31T06:34:30.867Z,49.64
2018-12-31T06:36:59.829Z,49.63
2018-12-31T06:39:25.723Z,50.01
2018-12-31T06:41:54.765Z,49.92
2018-12-31T06:44:20.757Z,49.81
2018-12-31T06:46:49.741Z,49.74
2018-12-31T06:49:15.843Z,50.02
2018-12-31T06:51:41.741Z,49.97
2018-12-31T06:54:07.681Z,50.02
2018-12-31T06:56:36.758Z,49.65
2018-12-31T06:59:02.711Z,49.60
2018-12-31T07:01:37.181Z,49.45
2018-12-31T07:07:17.535Z,49.48
2018-12-31T07:09:50.893Z,49.31
2018-12-31T07:12:35.001Z,49.32
2018-12-31T07:15:11.831Z,49.38
2018-12-31T07:17:41.180Z,49.35
2018-12-31T07:22:51.851Z,50.07
2018-12-31T07:25:20.817Z,49.50
2018-12-31T07:27:49.733Z,49.43
2018-12-31T07:30:15.634Z,49.57
2018-12-31T07:32:41.525Z,49.40
2018-12-31T07:35:07.769Z,49.69
2018-12-31T07:37:36.464Z,49.58
2018-12-31T07:40:05.893Z,49.40
2018-12-31T07:42:34.992Z,49.38
2018-12-31T07:45:04.275Z,49.68
2018-12-31T07:47:30.184Z,49.50
2018-12-31T07:49:56.079Z,49.55
2018-12-31T07:52:22.003Z,49.60
2018-12-31T07:54:47.959Z,49.46
2018-12-31T07:57:13.913Z,49.29
2018-12-31T07:59:39.827Z,49.18
2018-12-31T08:02:05.723Z,49.37
2018-12-31T08:04:31.633Z,49.60
2018-12-31T08:06:57.567Z,49.75
2018-12-31T08:09:23.461Z,49.43
2018-12-31T08:11:49.383Z,49.56
2018-12-31T08:14:18.067Z,49.58
2018-12-31T08:16:49.589Z,49.52
2018-12-31T08:19:15.494Z,49.62
2018-12-31T08:21:41.393Z,49.58
2018-12-31T08:24:10.414Z,49.55
2018-12-31T08:26:39.312Z,49.66
2018-12-31T08:29:08.240Z,49.67
2018-12-31T08:31:37.131Z,49.48
2018-12-31T08:34:06.137Z,48.86
2018-12-31T08:36:32.042Z,48.95
2018-12-31T08:38:57.976Z,48.97
2018-12-31T08:41:27.365Z,49.29
2018-12-31T08:43:56.083Z,48.98
2018-12-31T08:46:25.013Z,48.86
2018-12-31T08:48:50.968Z,49.22
2018-12-31T08:51:19.864Z,49.20
2018-12-31T08:53:49.008Z,49.22
2018-12-31T08:56:15.009Z,49.28
2018-12-31T08:58:40.902Z,49.68
2018-12-31T09:01:10.342Z,49.17
2018-12-31T09:03:39.247Z,49.35
2018-12-31T09:06:05.198Z,48.79
2018-12-31T09:08:31.095Z,49.03
2018-12-31T09:10:56.993Z,49.03
2018-12-31T09:13:22.887Z,49.51
2018-12-31T09:15:49.123Z,49.11
2018-12-31T09:18:15.025Z,49.12
2018-12-31T09:20:41.003Z,49.12
2018-12-31T09:23:06.981Z,49.24
2018-12-31T09:25:32.943Z,49.16
2018-12-31T09:27:59.049Z,49.33
2018-12-31T09:30:24.974Z,49.07
2018-12-31T09:32:50.902Z,49.30
2018-12-31T09:35:19.861Z,49.06
2018-12-31T09:37:45.746Z,49.15
2018-12-31T09:40:11.664Z,49.27
2018-12-31T09:42:37.569Z,49.21
2018-12-31T09:45:03.472Z,49.47
2018-12-31T09:47:29.373Z,49.20
2018-12-31T09:49:55.287Z,49.34
2018-12-31T09:52:21.575Z,49.28
2018-12-31T09:54:49.457Z,48.97
2018-12-31T09:57:15.475Z,49.49
2018-12-31T09:59:41.319Z,49.53
2018-12-31T10:02:07.266Z,49.47
2018-12-31T10:04:35.988Z,49.92
2018-12-31T10:07:01.920Z,49.21
2018-12-31T10:09:27.994Z,49.65
2018-12-31T10:11:53.928Z,49.44
2018-12-31T10:14:19.826Z,48.84
2018-12-31T10:16:45.725Z,49.04
2018-12-31T10:19:11.682Z,48.91
2018-12-31T10:21:41.097Z,49.07
2018-12-31T10:24:10.244Z,49.81
2018-12-31T10:26:36.143Z,49.89
2018-12-31T10:29:02.047Z,49.61
2018-12-31T10:31:31.363Z,49.66
2018-12-31T10:33:57.263Z,49.71
2018-12-31T10:36:23.157Z,49.60
2018-12-31T10:38:51.182Z,49.55
2018-12-31T10:41:19.973Z,49.63
2018-12-31T10:43:45.920Z,50.00
2018-12-31T10:46:14.880Z,49.48
2018-12-31T10:48:40.772Z,49.66
2018-12-31T10:51:06.723Z,49.33
2018-12-31T10:53:35.847Z,49.66
2018-12-31T10:56:01.752Z,49.28
2018-12-31T10:58:30.791Z,49.41
2018-12-31T11:00:59.791Z,49.74
2018-12-31T11:03:25.689Z,49.43
2018-12-31T11:05:54.630Z,49.61
2018-12-31T11:08:23.991Z,49.48
2018-12-31T11:10:49.897Z,49.73
2018-12-31T11:13:15.846Z,49.42
2018-12-31T11:15:41.741Z,49.30
2018-12-31T11:18:10.419Z,49.66
2018-12-31T11:20:39.540Z,49.43
2018-12-31T11:23:08.456Z,49.37
2018-12-31T11:25:37.834Z,49.40
2018-12-31T11:28:06.555Z,49.41
2018-12-31T11:30:32.462Z,49.07
2018-12-31T11:33:01.127Z,49.16
2018-12-31T11:35:29.953Z,49.04
2018-12-31T11:37:55.823Z,49.22
2018-12-31T11:40:21.779Z,49.26
2018-12-31T11:42:47.672Z,49.35
2018-12-31T11:45:13.585Z,49.52
2018-12-31T11:47:39.470Z,49.49
2018-12-31T11:50:05.417Z,49.48
2018-12-31T11:52:31.387Z,49.18
2018-12-31T11:54:57.326Z,49.20
2018-12-31T11:57:23.222Z,49.49
2018-12-31T11:59:49.127Z,49.22
2018-12-31T12:02:15.030Z,49.38
2018-12-31T12:04:44.413Z,49.40
2018-12-31T12:07:13.500Z,49.76
2018-12-31T12:09:39.391Z,49.41
2018-12-31T12:12:08.492Z,49.46
2018-12-31T12:14:37.681Z,49.47
2018-12-31T12:17:06.627Z,49.72
2018-12-31T12:19:35.543Z,49.43
2018-12-31T12:22:01.481Z,49.60
2018-12-31T12:24:30.859Z,49.53
2018-12-31T12:26:57.620Z,49.50
2018-12-31T12:29:23.569Z,49.56
2018-12-31T12:31:50.185Z,49.23
2018-12-31T12:34:18.913Z,49.47
2018-12-31T12:36:44.864Z,49.32
2018-12-31T12:39:10.745Z,49.53
2018-12-31T12:41:36.754Z,49.42
2018-12-31T12:44:05.749Z,49.67
2018-12-31T12:46:34.861Z,49.62
2018-12-31T12:49:00.813Z,50.02
2018-12-31T12:51:26.723Z,50.01
2018-12-31T12:53:52.658Z,49.81
2018-12-31T12:56:19.120Z,48.98
2018-12-31T12:58:45.169Z,49.14
2018-12-31T13:01:11.083Z,48.98
2018-12-31T13:03:39.883Z,49.22
2018-12-31T13:06:08.946Z,49.47
2018-12-31T13:08:34.847Z,49.50
2018-12-31T13:11:00.994Z,49.63
2018-12-31T13:13:26.926Z,49.47
2018-12-31T13:15:55.614Z,49.17
2018-12-31T13:18:24.580Z,50.02
2018-12-31T13:20:50.486Z,49.60
2018-12-31T13:23:16.395Z,49.74
2018-12-31T13:25:42.288Z,50.34
2018-12-31T13:28:08.195Z,49.96
2018-12-31T13:30:37.751Z,49.89
2018-12-31T13:33:03.659Z,50.27
2018-12-31T13:35:32.631Z,49.53
2018-12-31T13:38:01.560Z,49.77
2018-12-31T13:40:27.471Z,49.66
2018-12-31T13:42:56.460Z,50.37
2018-12-31T13:45:22.355Z,49.66
2018-12-31T13:47:48.700Z,49.63
2018-12-31T13:50:20.325Z,49.41
2018-12-31T13:52:46.244Z,49.47
2018-12-31T13:55:12.268Z,49.35
2018-12-31T13:57:38.176Z,49.12
2018-12-31T14:00:05.586Z,48.78
2018-12-31T14:02:31.873Z,48.61
2018-12-31T14:04:57.796Z,48.45
2018-12-31T14:07:23.962Z,48.94
2018-12-31T14:09:52.619Z,48.96
2018-12-31T14:12:21.970Z,48.97
2018-12-31T14:14:50.649Z,48.33
2018-12-31T14:17:16.590Z,48.77
2018-12-31T14:19:42.499Z,48.81
2018-12-31T14:22:11.562Z,48.96
2018-12-31T14:24:40.477Z,49.11
2018-12-31T14:27:06.421Z,48.99
2018-12-31T14:29:35.320Z,49.09
2018-12-31T14:32:01.219Z,49.17
2018-12-31T14:34:30.284Z,49.28
2018-12-31T14:36:56.676Z,49.24
2018-12-31T14:39:22.999Z,49.12
2018-12-31T14:41:48.897Z,49.69
2018-12-31T14:44:14.801Z,49.55
2018-12-31T14:46:40.719Z,49.45
2018-12-31T14:49:07.021Z,49.55
2018-12-31T14:51:35.891Z,49.58
2018-12-31T14:54:01.840Z,49.25
2018-12-31T14:56:27.837Z,49.38
2018-12-31T14:58:53.736Z,49.68
2018-12-31T15:01:20.361Z,49.50
2018-12-31T15:03:48.584Z,49.97
2018-12-31T15:06:14.343Z,49.45
2018-12-31T15:08:40.241Z,49.62
2018-12-31T15:11:06.143Z,49.77
2018-12-31T15:13:32.345Z,49.61
2018-12-31T15:15:58.236Z,49.79
2018-12-31T15:18:24.448Z,49.63
2018-12-31T15:20:50.333Z,49.55
2018-12-31T15:23:16.343Z,49.80
2018-12-31T15:25:42.234Z,49.79
2018-12-31T15:28:08.135Z,49.86
2018-12-31T15:30:34.062Z,49.45
2018-12-31T15:33:00.303Z,49.02
2018-12-31T15:35:29.085Z,49.51
2018-12-31T15:37:54.991Z,49.21
2018-12-31T15:40:23.905Z,49.24
2018-12-31T15:42:53.421Z,49.57
2018-12-31T15:45:19.688Z,49.30
2018-12-31T15:47:45.670Z,49.33
2018-12-31T15:50:11.910Z,49.54
2018-12-31T15:52:40.602Z,49.78
2018-12-31T15:55:06.495Z,49.46
2018-12-31T15:57:32.408Z,49.51
2018-12-31T15:59:58.292Z,49.70
2018-12-31T16:02:24.293Z,49.39
2018-12-31T16:04:50.190Z,49.75
2018-12-31T16:07:19.135Z,49.32
2018-12-31T16:09:45.030Z,49.74
2018-12-31T16:12:13.995Z,49.56
2018-12-31T16:15:36.168Z,49.97
2018-12-31T16:22:31.367Z,50.12
2018-12-31T16:24:09.043Z,49.73
2018-12-31T16:26:34.950Z,49.56
2018-12-31T16:29:01.264Z,49.77
2018-12-31T16:31:27.599Z,49.92
2018-12-31T16:33:53.541Z,49.89
2018-12-31T16:36:19.434Z,50.07
2018-12-31T16:38:48.134Z,49.90
2018-12-31T16:41:19.597Z,50.05
2018-12-31T16:43:48.715Z,49.89
2018-12-31T16:46:14.707Z,50.05
2018-12-31T16:48:43.953Z,50.00
2018-12-31T16:51:09.855Z,50.17
2018-12-31T16:53:38.519Z,50.31
2018-12-31T16:56:04.421Z,50.19
2018-12-31T16:58:33.468Z,50.25
2018-12-31T17:00:59.355Z,49.71
2018-12-31T17:03:28.072Z,49.96
2018-12-31T17:05:53.982Z,50.01
2018-12-31T17:08:19.871Z,49.90
2018-12-31T17:10:45.806Z,50.08
2018-12-31T17:13:11.709Z,49.83
2018-12-31T17:15:38.056Z,49.90
2018-12-31T17:18:03.963Z,50.29
2018-12-31T17:20:30.163Z,50.02
2018-12-31T17:22:56.064Z,49.92
2018-12-31T17:25:22.019Z,50.08
2018-12-31T17:27:50.918Z,50.14
2018-12-31T17:30:18.810Z,49.85
2018-12-31T17:32:44.711Z,50.04
2018-12-31T17:35:13.404Z,50.64
2018-12-31T17:37:39.303Z,50.52
2018-12-31T17:40:08.235Z,50.46
2018-12-31T17:42:37.140Z,50.78
2018-12-31T17:45:06.113Z,51.03
2018-12-31T17:47:35.059Z,50.80
2018-12-31T17:50:04.996Z,50.54
2018-12-31T17:52:34.490Z,50.35
2018-12-31T17:55:03.248Z,50.75
2018-12-31T17:57:32.340Z,50.51
2018-12-31T18:00:06.593Z,50.53
2018-12-31T18:02:32.649Z,50.63
2018-12-31T18:05:01.763Z,50.75
2018-12-31T18:07:30.774Z,50.58
2018-12-31T18:09:59.833Z,50.87
2018-12-31T18:12:25.730Z,50.66
2018-12-31T18:14:55.013Z,50.79
2018-12-31T18:17:23.955Z,50.71
2018-12-31T18:19:52.906Z,50.87
2018-12-31T18:22:18.823Z,50.63
2018-12-31T18:24:50.904Z,50.72
2018-12-31T18:27:19.270Z,50.69
2018-12-31T18:29:48.112Z,50.94
2018-12-31T18:32:14.032Z,50.68
2018-12-31T18:34:39.939Z,50.84
2018-12-31T18:37:08.984Z,50.63
2018-12-31T18:39:34.884Z,50.73
2018-12-31T18:42:01.173Z,50.80
2018-12-31T18:44:27.073Z,50.83
2018-12-31T18:46:55.751Z,50.60
2018-12-31T18:49:21.647Z,51.07
2018-12-31T18:51:50.563Z,51.08
2018-12-31T18:54:19.610Z,50.97
2018-12-31T18:56:45.581Z,51.10
2018-12-31T18:59:14.683Z,51.16
2018-12-31T19:01:40.591Z,51.11
2018-12-31T19:04:06.514Z,51.07
2018-12-31T19:06:32.419Z,51.12
2018-12-31T19:08:58.320Z,51.75
2018-12-31T19:11:24.242Z,51.56
2018-12-31T19:13:50.129Z,51.43
2018-12-31T19:16:16.085Z,51.22
2018-12-31T19:18:42.036Z,51.28
2018-12-31T19:21:07.920Z,51.33
2018-12-31T19:23:36.933Z,51.46
2018-12-31T19:26:06.037Z,51.33
2018-12-31T19:28:40.181Z,51.06
2018-12-31T19:31:06.132Z,51.33
2018-12-31T19:33:34.832Z,51.62
2018-12-31T19:36:03.768Z,51.49
2018-12-31T19:38:30.127Z,51.27
2018-12-31T19:40:58.839Z,51.53
2018-12-31T19:43:25.078Z,50.84
2018-12-31T19:45:53.858Z,51.33
2018-12-31T19:48:19.783Z,51.34
2018-12-31T19:50:49.173Z,50.76
2018-12-31T19:53:15.537Z,50.68
2018-12-31T19:55:41.816Z,51.00
2018-12-31T19:58:07.717Z,51.12
2018-12-31T20:00:33.628Z,50.93
2018-12-31T20:03:02.553Z,51.22
2018-12-31T20:05:28.466Z,51.33
2018-12-31T20:07:59.491Z,50.93
2018-12-31T20:10:28.436Z,51.37
2018-12-31T20:12:57.550Z,51.54
2018-12-31T20:15:23.436Z,51.25
2018-12-31T20:17:49.464Z,51.27
2018-12-31T20:20:18.359Z,51.38
2018-12-31T20:22:49.165Z,51.37
2018-12-31T20:25:15.120Z,51.40
2018-12-31T20:27:43.827Z,51.55
2018-12-31T20:30:09.862Z,51.66
2018-12-31T20:32:35.762Z,51.41
2018-12-31T20:35:01.664Z,51.57
2018-12-31T20:37:28.222Z,51.66
2018-12-31T20:39:54.201Z,51.31
2018-12-31T20:42:23.244Z,51.71
2018-12-31T20:44:49.185Z,51.97
2018-12-31T20:47:15.083Z,51.94
2018-12-31T20:49:41.020Z,51.62
2018-12-31T20:52:09.945Z,51.58
2018-12-31T20:54:36.292Z,51.40
2018-12-31T20:57:02.210Z,51.31
2018-12-31T20:59:28.102Z,52.14
2018-12-31T21:01:56.807Z,51.94
2018-12-31T21:04:26.009Z,51.79
2018-12-31T21:06:53.594Z,51.55
2018-12-31T21:09:19.944Z,51.62
2018-12-31T21:11:49.358Z,51.43
2018-12-31T21:14:15.263Z,51.74
2018-12-31T21:16:41.212Z,51.84
2018-12-31T21:19:10.238Z,52.07
2018-12-31T21:21:36.178Z,52.04
2018-12-31T21:24:05.781Z,52.01
2018-12-31T21:26:34.496Z,52.23
2018-12-31T21:29:03.433Z,52.00
2018-12-31T21:31:32.894Z,51.82
2018-12-31T21:33:58.842Z,51.97
2018-12-31T21:36:27.508Z,52.39
2018-12-31T21:38:53.886Z,52.11
2018-12-31T21:41:20.150Z,52.18
2018-12-31T21:43:46.092Z,52.39
2018-12-31T21:46:11.994Z,52.30
2018-12-31T21:48:37.943Z,52.60
2018-12-31T21:51:03.849Z,52.38
2018-12-31T21:53:30.152Z,52.44
2018-12-31T21:55:56.048Z,52.54
2018-12-31T21:58:25.058Z,52.46
2018-12-31T22:00:51.042Z,52.36
2018-12-31T22:03:19.483Z,52.54
2018-12-31T22:05:45.382Z,53.20
2018-12-31T22:08:11.339Z,53.25
2018-12-31T22:10:37.229Z,52.38
2018-12-31T22:13:06.182Z,52.44
2018-12-31T22:15:32.691Z,52.64
2018-12-31T22:17:58.773Z,52.46
2018-12-31T22:20:24.671Z,52.68
2018-12-31T22:22:53.763Z,52.67
2018-12-31T22:25:20.030Z,52.72
2018-12-31T22:27:46.256Z,52.78
2018-12-31T22:30:14.917Z,52.58
2018-12-31T22:32:44.234Z,52.95
2018-12-31T22:35:10.136Z,52.87
2018-12-31T22:37:36.208Z,52.48
2018-12-31T22:40:05.451Z,52.93
2018-12-31T22:42:31.351Z,53.04
2018-12-31T22:44:57.252Z,52.89
2018-12-31T22:47:23.169Z,53.08
2018-12-31T22:49:49.208Z,53.28
2018-12-31T22:52:18.406Z,53.30
2018-12-31T22:54:48.293Z,53.14
2018-12-31T22:57:14.244Z,53.32
2018-12-31T22:59:43.149Z,53.23
2018-12-31T23:02:12.371Z,53.23
2018-12-31T23:04:38.646Z,53.24
2018-12-31T23:07:04.847Z,53.00
2018-12-31T23:09:30.795Z,52.98
2018-12-31T23:11:59.709Z,53.13
2018-12-31T23:14:29.241Z,52.92
2018-12-31T23:16:55.900Z,53.06
2018-12-31T23:19:24.673Z,53.25
2018-12-31T23:21:50.783Z,53.11
2018-12-31T23:24:19.879Z,53.20
2018-12-31T23:26:48.781Z,53.15
2018-12-31T23:29:17.831Z,52.91
2018-12-31T23:31:48.035Z,53.29
2018-12-31T23:34:13.988Z,53.32
2018-12-31T23:36:42.647Z,53.71
2018-12-31T23:39:08.596Z,53.49
2018-12-31T23:41:37.498Z,53.37
2018-12-31T23:44:06.580Z,53.38
2018-12-31T23:46:35.520Z,53.20
2018-12-31T23:49:04.704Z,53.56
2018-12-31T23:51:30.629Z,53.46
2018-12-31T23:53:59.680Z,53.24
2018-12-31T23:56:28.614Z,53.06
2018-12-31T23:58:54.504Z,54.11
